Time;durP1;ratioP1;P1;durP2;ratioP2;P2;SDS_P1;SDS_P2;PMS_P1;PMS_P2;Temp;Humidity;BMP_temperature;BMP_pressure;BME280_temperature;BME280_humidity;BME280_pressure;Samples;Min_cycle;Max_cycle;Signal;HPM_P1;HPM_P2
2021/08/27 15:05:24;;;;;;;0.22;0.22;;;14.80;99.90;;;14.36;100.00;102851.41;2336131;38;1177784559;31
2021/08/27 15:08:02;;;;;;;0.20;0.10;;;18.60;99.90;;;14.29;100.00;102753.25;2678496;30;20461;-83
2021/08/27 15:10:33;;;;;;;8.73;2.42;;;18.10;99.90;;;14.15;100.00;102695.09;2679407;38;20225;-83
2021/08/27 15:13:06;;;;;;;2.10;0.80;;;18.80;99.90;;;13.97;100.00;102672.38;2661851;38;20237;31
2021/08/27 15:15:35;;;;;;;0.35;0.28;;;17.60;99.90;;;13.92;100.00;102671.88;2695214;30;20200;-82
2021/08/27 15:21:13;;;;;;;2.73;0.30;;;17.20;99.90;;;13.84;100.00;102715.53;2663554;30;20244;31
2021/08/27 15:31:26;;;;;;;0.50;0.30;;;16.70;99.90;;;13.69;100.00;102995.69;2653537;30;20265;-84
2021/08/27 15:45:00;;;;;;;1.50;0.77;;;16.30;99.90;;;13.54;100.00;103210.19;2696018;38;20218;31
2021/08/27 15:48:14;;;;;;;0.55;0.50;;;16.20;99.90;;;13.35;100.00;103226.75;2634096;38;20206;-82
2021/08/27 15:51:27;;;;;;;0.52;0.52;;;16.20;99.90;;;13.26;100.00;103243.47;2684329;38;20202;-82
2021/08/27 15:54:44;;;;;;;1.30;0.63;;;16.20;99.90;;;13.42;100.00;103259.44;2646487;38;20214;-83
2021/08/27 15:57:22;;;;;;;0.63;0.50;;;16.40;99.90;;;13.40;100.00;103253.31;2645888;30;21338;-84
2021/08/27 15:59:51;;;;;;;1.00;0.60;;;16.10;99.90;;;13.49;100.00;103249.97;2680429;30;20373;-83
2021/08/27 16:02:21;;;;;;;0.37;0.37;;;16.10;99.90;;;13.60;100.00;103233.97;2699433;38;22231;-84
2021/08/27 16:05:27;;;;;;;0.82;0.50;;;16.50;99.90;;;13.78;100.00;103237.22;2678348;30;21101;-84
2021/08/27 16:08:40;;;;;;;1.02;0.52;;;16.70;99.90;;;13.63;100.00;103183.50;2675920;30;20221;-83
2021/08/27 16:11:56;;;;;;;0.63;0.40;;;16.10;99.90;;;13.82;100.00;103147.22;2657066;30;21145;-82
2021/08/27 16:15:11;;;;;;;0.45;0.35;;;16.20;99.90;;;13.87;100.00;103086.69;2696057;30;20582;-83
2021/08/27 16:18:24;;;;;;;0.25;0.25;;;16.20;99.90;;;13.97;100.00;103022.28;2674047;30;20206;-84
2021/08/27 16:21:02;;;;;;;0.68;0.40;;;16.20;99.90;;;13.89;100.00;102949.31;2677956;38;20347;-83
2021/08/27 16:23:41;;;;;;;0.45;0.30;;;16.20;99.90;;;13.66;100.00;102860.41;2697392;30;20195;31
2021/08/27 16:26:19;;;;;;;0.80;0.32;;;16.20;99.90;;;13.61;100.00;102818.69;2671915;30;20839;-81
2021/08/27 16:31:55;;;;;;;0.63;0.55;;;16.10;99.90;;;13.52;100.00;102744.06;2637549;38;20233;-83
2021/08/27 16:35:10;;;;;;;0.50;0.50;;;16.00;99.90;;;13.44;100.00;102731.22;2682274;30;20250;31
2021/08/27 16:37:57;;;;;;;0.52;0.50;;;16.50;99.90;;;13.47;100.00;102708.63;2636612;38;20529;31
2021/08/27 16:41:11;;;;;;;0.30;0.30;;;15.80;99.90;;;13.34;100.00;102697.94;2646795;30;20919;31
2021/08/27 16:44:24;;;;;;;0.45;0.45;;;15.70;99.90;;;13.17;100.00;102693.00;2696218;38;20560;-82
2021/08/27 16:47:40;;;;;;;0.30;0.30;;;16.30;99.90;;;13.14;100.00;102707.50;2649824;38;20203;-81
2021/08/27 16:50:29;;;;;;;0.47;0.47;;;16.50;99.90;;;13.19;100.00;102728.69;2690720;30;20218;31
2021/08/27 16:53:43;;;;;;;0.25;0.25;;;15.50;99.90;;;12.97;100.00;102758.13;2661578;30;20346;-84
2021/08/27 16:56:56;;;;;;;0.40;0.30;;;15.40;99.90;;;12.77;100.00;102789.13;2682847;30;20273;-83
2021/08/27 17:02:49;;;;;;;0.30;0.30;;;15.20;99.90;;;12.64;100.00;102834.81;2681866;38;20736;-83
2021/08/27 17:06:02;;;;;;;1.83;0.80;;;15.10;99.90;;;12.68;100.00;102884.66;2660138;30;21301;-84
2021/08/27 17:09:15;;;;;;;0.30;0.30;;;15.00;99.90;;;12.52;100.00;102908.19;2665121;30;21171;-83
2021/08/27 17:12:30;;;;;;;0.70;0.53;;;14.90;99.90;;;12.46;100.00;102946.22;2644766;30;20433;-82
2021/08/27 17:15:43;;;;;;;0.67;0.60;;;14.80;99.90;;;12.41;100.00;102984.13;2624235;38;20979;-83
2021/08/27 17:19:01;;;;;;;3.93;0.63;;;14.70;99.90;;;12.28;100.00;103017.28;2640635;38;21070;-81
2021/08/27 17:22:15;;;;;;;0.97;0.80;;;14.60;99.90;;;12.26;100.00;103070.22;2657117;30;21439;-81
2021/08/27 17:25:29;;;;;;;1.70;1.60;;;14.50;99.90;;;12.18;100.00;103117.22;2677092;30;20217;-85
2021/08/27 17:28:43;;;;;;;2.80;1.70;;;14.40;99.90;;;12.17;100.00;103171.00;2680345;38;20194;-84
2021/08/27 17:31:20;;;;;;;2.23;2.03;;;14.30;99.90;;;12.19;100.00;103218.28;2645061;30;20445;-82
2021/08/27 17:33:56;;;;;;;3.70;1.93;;;15.20;99.90;;;12.08;100.00;103242.25;2670973;30;20706;31
2021/08/27 17:37:00;;;;;;;1.53;1.20;;;14.10;99.90;;;12.03;100.00;103292.66;2694817;30;20430;-82
2021/08/27 17:42:42;;;;;;;0.80;0.80;;;14.00;99.90;;;11.91;100.00;103400.75;2674659;30;20682;-84
2021/08/27 17:45:29;;;;;;;1.43;0.60;;;14.00;99.90;;;11.80;100.00;103462.22;2670277;30;20207;31
2021/08/27 17:48:43;;;;;;;0.53;0.50;;;13.90;99.90;;;11.87;100.00;103552.13;2721750;38;20690;-84
2021/08/27 17:51:59;;;;;;;3.70;1.30;;;13.80;99.90;;;11.74;100.00;103615.47;2658174;30;20278;-82
2021/08/27 17:55:12;;;;;;;2.37;1.43;;;13.80;99.90;;;11.75;100.00;103705.69;2738644;30;20218;-82
2021/08/27 17:58:27;;;;;;;1.40;0.93;;;13.70;99.90;;;11.67;100.00;103772.31;2673097;38;22029;31
2021/08/27 18:01:16;;;;;;;0.63;0.63;;;13.70;99.90;;;11.60;100.00;103843.34;2655560;38;21145;31
2021/08/27 18:04:32;;;;;;;0.70;0.60;;;13.60;99.90;;;11.52;100.00;103925.03;2657766;30;20831;31
2021/08/27 18:07:12;;;;;;;1.50;1.20;;;13.60;99.90;;;11.48;100.00;103995.03;2681487;30;21147;-82
2021/08/27 18:09:41;;;;;;;6.10;2.00;;;13.50;99.90;;;11.39;100.00;104044.56;2663168;38;20575;-85
2021/08/27 18:12:10;;;;;;;0.80;0.80;;;13.50;99.90;;;11.35;100.00;104101.13;2672364;30;21099;31
2021/08/27 18:15:16;;;;;;;0.80;0.80;;;13.40;99.90;;;11.34;100.00;104171.78;2661795;30;20637;-81
2021/08/27 18:21:05;;;;;;;0.73;0.70;;;13.40;99.90;;;11.35;100.00;104315.66;2727394;30;21113;-82
2021/08/27 18:23:52;;;;;;;1.60;0.80;;;13.30;99.90;;;11.32;100.00;104374.75;2690093;38;20229;31
2021/08/27 18:26:33;;;;;;;1.07;0.97;;;13.30;99.90;;;11.29;100.00;104442.78;2706387;30;20222;-84
2021/08/27 18:29:03;;;;;;;1.10;1.00;;;13.30;99.90;;;11.33;100.00;104491.81;2686465;30;20225;-83
2021/08/27 18:31:32;;;;;;;1.03;0.80;;;14.00;99.90;;;11.32;100.00;104527.59;2682839;38;20237;-83
2021/08/27 18:34:01;;;;;;;2.43;1.00;;;13.30;99.90;;;11.31;100.00;104582.16;2654751;30;20519;-83
2021/08/27 18:36:30;;;;;;;1.13;1.00;;;13.20;99.90;;;11.29;100.00;104610.84;2665635;30;20219;-83
2021/08/27 18:39:34;;;;;;;4.20;2.13;;;13.20;99.90;;;11.26;100.00;104661.88;2653477;38;20372;-83
2021/08/27 18:42:23;;;;;;;1.40;1.30;;;13.30;99.90;;;11.23;100.00;104705.81;2709252;30;20218;31
2021/08/27 18:45:43;;;;;;;1.85;1.50;;;13.20;99.90;;;11.21;100.00;104752.38;2692870;30;20237;31
2021/08/27 18:48:56;;;;;;;1.57;1.47;;;13.30;99.90;;;11.15;100.00;104799.00;2692061;38;21002;-85
2021/08/27 18:52:10;;;;;;;2.50;1.33;;;13.20;99.90;;;11.12;100.00;104847.41;2716174;30;21185;31
2021/08/27 18:55:24;;;;;;;2.00;1.47;;;13.30;99.90;;;11.10;100.00;105457.84;2678403;30;20250;-84
2021/08/27 18:58:38;;;;;;;1.37;1.13;;;13.20;99.90;;;11.06;100.00;105572.31;2659848;30;20812;-83
2021/08/27 19:01:58;;;;;;;2.13;1.40;;;13.20;99.90;;;11.01;100.00;105675.19;2692528;30;20429;31
2021/08/27 19:05:12;;;;;;;1.23;1.10;;;13.20;99.90;;;10.96;100.00;105758.41;2635269;30;20550;-83
2021/08/27 19:08:25;;;;;;;4.60;1.83;;;13.20;99.90;;;11.01;100.00;105803.88;2642287;38;20281;-82
2021/08/27 19:11:39;;;;;;;1.77;1.50;;;13.10;99.90;;;11.00;100.00;105893.28;2650348;30;20222;-83
2021/08/27 19:14:53;;;;;;;1.77;1.37;;;13.20;99.90;;;10.98;100.00;105952.28;2701863;30;20698;-83
2021/08/27 19:18:09;;;;;;;0.87;0.87;;;13.20;99.90;;;11.09;100.00;106020.06;2689039;30;20226;-85
2021/08/27 19:21:24;;;;;;;1.00;0.90;;;13.10;99.90;;;11.06;100.00;106032.59;2696383;30;20261;31
2021/08/27 19:24:38;;;;;;;0.53;0.53;;;13.20;99.90;;;11.08;100.00;106045.09;2656644;30;20226;-82
2021/08/27 19:27:51;;;;;;;1.40;1.10;;;13.20;99.90;;;11.05;100.00;106037.09;2677860;38;20623;-82
2021/08/27 19:31:07;;;;;;;1.33;1.10;;;13.20;99.90;;;11.01;100.00;106043.38;2669684;30;20722;-84
2021/08/27 19:33:47;;;;;;;0.83;0.83;;;13.20;99.90;;;10.99;100.00;106058.63;2662139;38;20312;-82
2021/08/27 19:36:16;;;;;;;1.50;1.40;;;13.20;99.90;;;10.97;100.00;106051.50;2651072;30;20508;-83
